createdAt,value
2022-11-06T00:01:43.556Z,21.52
2022-11-06T00:04:37.059Z,22.85
2022-11-06T00:07:21.412Z,23.20
2022-11-06T00:12:50.992Z,20.38
2022-11-06T00:15:39.687Z,21.98
2022-11-06T00:18:31.610Z,24.17
2022-11-06T00:21:28.065Z,23.45
2022-11-06T00:24:09.553Z,23.33
2022-11-06T00:27:10.653Z,30.27
2022-11-06T00:29:54.935Z,26.48
2022-11-06T00:32:35.487Z,29.13
2022-11-06T00:35:16.240Z,24.35
2022-11-06T00:38:02.467Z,28.70
2022-11-06T00:41:00.787Z,29.50
2022-11-06T00:43:56.827Z,29.98
2022-11-06T00:46:39.381Z,31.20
2022-11-06T00:49:16.920Z,34.55
2022-11-06T00:52:00.249Z,33.35
2022-11-06T00:54:45.818Z,33.85
2022-11-06T00:57:32.009Z,37.70
2022-11-06T01:00:20.826Z,33.03
2022-11-06T01:03:08.010Z,33.95
2022-11-06T01:05:53.607Z,30.98
2022-11-06T01:08:40.573Z,30.23
2022-11-06T01:12:06.888Z,35.80
2022-11-06T01:14:48.893Z,30.27
2022-11-06T01:17:32.835Z,35.80
2022-11-06T01:20:24.040Z,33.22
2022-11-06T01:23:11.431Z,34.78
2022-11-06T01:25:59.088Z,31.77
2022-11-06T01:28:49.144Z,29.45
2022-11-06T01:31:29.588Z,31.55
2022-11-06T01:34:10.917Z,26.30
2022-11-06T01:37:01.076Z,29.23
2022-11-06T01:39:49.844Z,26.58
2022-11-06T01:42:45.228Z,29.23
2022-11-06T01:45:32.526Z,32.63
2022-11-06T01:48:11.644Z,36.97
2022-11-06T01:51:00.944Z,34.65
2022-11-06T01:53:49.900Z,32.78
2022-11-06T01:56:39.452Z,33.70
2022-11-06T01:59:21.289Z,30.02
2022-11-06T02:02:05.185Z,40.75
2022-11-06T02:07:44.069Z,37.08
2022-11-06T02:10:25.571Z,32.42
2022-11-06T02:13:15.467Z,35.13
2022-11-06T02:16:27.596Z,42.03
2022-11-06T02:19:21.345Z,33.50
2022-11-06T02:22:47.087Z,35.13
2022-11-06T02:25:57.495Z,29.52
2022-11-06T02:28:42.030Z,35.35
2022-11-06T02:31:27.355Z,33.97
2022-11-06T02:34:15.303Z,32.92
2022-11-06T02:37:15.671Z,31.40
2022-11-06T02:40:03.757Z,32.65
2022-11-06T02:42:52.090Z,35.97
2022-11-06T02:45:41.625Z,33.47
2022-11-06T02:48:31.926Z,37.97
2022-11-06T02:51:21.554Z,36.67
2022-11-06T02:54:04.480Z,34.08
2022-11-06T02:56:42.792Z,33.15
2022-11-06T02:59:27.542Z,32.75
2022-11-06T03:02:25.149Z,32.53
2022-11-06T03:05:14.938Z,26.00
2022-11-06T03:08:08.872Z,29.77
2022-11-06T03:11:19.610Z,28.58
2022-11-06T03:14:04.496Z,28.00
2022-11-06T03:17:07.078Z,30.67
2022-11-06T03:20:04.921Z,32.20
2022-11-06T03:23:04.226Z,32.10
2022-11-06T03:26:00.241Z,31.88
2022-11-06T03:28:47.762Z,33.30
2022-11-06T03:31:42.513Z,30.45
2022-11-06T03:34:27.478Z,33.42
2022-11-06T03:37:34.349Z,34.25
2022-11-06T03:40:21.634Z,29.33
2022-11-06T03:43:05.379Z,31.77
2022-11-06T03:45:46.781Z,29.40
2022-11-06T03:48:39.822Z,29.30
2022-11-06T03:51:32.848Z,29.13
2022-11-06T03:54:38.491Z,26.17
2022-11-06T03:57:24.038Z,26.10
2022-11-06T04:00:06.056Z,24.05
2022-11-06T04:03:08.532Z,26.20
2022-11-06T04:05:54.086Z,25.05
2022-11-06T04:08:51.438Z,24.50
2022-11-06T04:11:48.843Z,25.17
2022-11-06T04:14:35.080Z,24.63
2022-11-06T04:17:17.772Z,22.90
2022-11-06T04:20:11.058Z,23.25
2022-11-06T04:23:06.589Z,24.90
2022-11-06T04:26:40.107Z,21.95
2022-11-06T04:29:54.119Z,21.15
2022-11-06T04:33:16.892Z,23.00
2022-11-06T04:36:26.804Z,21.60
2022-11-06T04:39:28.807Z,20.13
2022-11-06T04:42:32.870Z,20.02
2022-11-06T04:48:12.182Z,21.83
2022-11-06T04:50:57.444Z,26.75
2022-11-06T04:53:39.604Z,25.65
2022-11-06T04:56:25.816Z,28.75
2022-11-06T04:59:09.231Z,28.98
2022-11-06T05:01:52.232Z,32.72
2022-11-06T05:04:32.931Z,35.72
2022-11-06T05:07:18.386Z,39.65
2022-11-06T05:10:05.541Z,37.38
2022-11-06T05:12:58.615Z,36.17
2022-11-06T05:15:45.064Z,34.15
2022-11-06T05:18:32.075Z,32.90
2022-11-06T05:21:28.679Z,33.80
2022-11-06T05:24:09.748Z,31.33
2022-11-06T05:27:01.270Z,34.25
2022-11-06T05:29:43.094Z,31.40
2022-11-06T05:32:31.584Z,28.45
2022-11-06T05:35:18.221Z,30.58
2022-11-06T05:38:12.875Z,30.65
2022-11-06T05:40:54.964Z,30.00
2022-11-06T05:43:38.541Z,27.30
2022-11-06T05:46:47.543Z,25.90
2022-11-06T05:49:37.084Z,24.70
2022-11-06T05:52:22.511Z,27.55
2022-11-06T05:55:13.182Z,25.30
2022-11-06T05:57:56.230Z,25.08
2022-11-06T06:00:43.066Z,23.65
2022-11-06T06:03:32.249Z,25.50
2022-11-06T06:06:16.081Z,24.92
2022-11-06T06:09:01.914Z,24.17
2022-11-06T06:11:46.394Z,27.08
2022-11-06T06:14:33.754Z,26.35
2022-11-06T06:17:16.862Z,26.45
2022-11-06T06:20:04.302Z,30.13
2022-11-06T06:22:44.987Z,26.83
2022-11-06T06:25:28.838Z,23.13
2022-11-06T06:28:21.177Z,24.67
2022-11-06T06:31:01.811Z,23.83
2022-11-06T06:33:46.917Z,25.17
2022-11-06T06:36:27.570Z,27.93
2022-11-06T06:39:16.495Z,25.55
2022-11-06T06:42:10.355Z,24.85
2022-11-06T06:44:51.006Z,27.77
2022-11-06T06:47:38.393Z,26.60
2022-11-06T06:50:22.546Z,24.58
2022-11-06T06:53:19.723Z,24.20
2022-11-06T06:55:59.049Z,24.95
2022-11-06T06:58:50.610Z,25.33
2022-11-06T07:01:39.120Z,24.95
2022-11-06T07:04:20.428Z,24.65
2022-11-06T07:07:01.205Z,29.38
2022-11-06T07:09:46.081Z,28.55
2022-11-06T07:12:24.061Z,29.02
2022-11-06T07:15:08.624Z,27.23
2022-11-06T07:17:56.432Z,27.30
2022-11-06T07:20:54.496Z,27.70
2022-11-06T07:23:34.897Z,28.90
2022-11-06T07:26:24.255Z,30.23
2022-11-06T07:29:10.514Z,29.10
2022-11-06T07:31:59.408Z,27.65
2022-11-06T07:34:50.467Z,30.08
2022-11-06T07:37:39.442Z,30.90
2022-11-06T07:40:25.414Z,28.00
2022-11-06T07:43:15.104Z,28.35
2022-11-06T07:45:50.236Z,27.60
2022-11-06T07:48:28.514Z,32.47
2022-11-06T07:51:23.101Z,29.52
2022-11-06T07:54:03.902Z,32.08
2022-11-06T07:56:58.976Z,29.45
2022-11-06T07:59:43.114Z,30.27
2022-11-06T08:02:26.129Z,25.95
2022-11-06T08:05:17.473Z,24.10
2022-11-06T08:07:59.155Z,25.38
2022-11-06T08:10:47.697Z,28.20
2022-11-06T08:13:39.817Z,31.27
2022-11-06T08:16:27.477Z,37.65
2022-11-06T08:19:05.125Z,37.00
2022-11-06T08:21:51.632Z,40.42
2022-11-06T08:24:41.541Z,34.28
2022-11-06T08:27:34.052Z,34.40
2022-11-06T08:30:20.608Z,32.80
2022-11-06T08:35:57.079Z,31.80
2022-11-06T08:38:38.819Z,40.15
2022-11-06T08:41:18.524Z,41.83
2022-11-06T08:44:11.076Z,44.88
2022-11-06T08:46:59.541Z,40.40
2022-11-06T08:49:50.667Z,37.13
2022-11-06T08:52:33.895Z,34.00
2022-11-06T08:55:28.792Z,34.35
2022-11-06T08:58:14.575Z,32.90
2022-11-06T09:00:55.632Z,33.60
2022-11-06T09:03:40.441Z,34.78
2022-11-06T09:06:22.128Z,30.35
2022-11-06T09:09:10.548Z,28.20
2022-11-06T09:11:58.045Z,27.88
2022-11-06T09:14:39.035Z,26.83
2022-11-06T09:17:24.095Z,26.98
2022-11-06T09:20:01.689Z,30.65
2022-11-06T09:22:42.030Z,29.00
2022-11-06T09:25:25.343Z,25.45
2022-11-06T09:28:18.222Z,29.08
2022-11-06T09:31:10.604Z,29.00
2022-11-06T09:34:03.275Z,25.60
2022-11-06T09:36:51.792Z,30.52
2022-11-06T09:39:38.941Z,27.90
2022-11-06T09:42:32.061Z,30.65
2022-11-06T09:45:30.287Z,35.25
2022-11-06T09:48:26.456Z,37.55
2022-11-06T09:51:15.047Z,36.33
2022-11-06T09:54:10.933Z,25.13
2022-11-06T09:56:58.007Z,21.65
2022-11-06T09:59:47.577Z,15.10
2022-11-06T10:02:52.552Z,20.90
2022-11-06T10:05:48.289Z,24.02
2022-11-06T10:08:36.695Z,21.53
2022-11-06T10:11:18.478Z,18.77
2022-11-06T10:14:29.030Z,15.75
2022-11-06T10:17:17.767Z,16.38
2022-11-06T10:20:14.626Z,15.23
2022-11-06T10:23:15.302Z,10.95
2022-11-06T10:26:42.541Z,11.45
2022-11-06T10:29:45.517Z,11.02
2022-11-06T10:32:47.052Z,10.25
2022-11-06T10:35:47.770Z,9.63
2022-11-06T10:38:34.184Z,10.45
2022-11-06T10:41:33.341Z,11.25
2022-11-06T10:44:27.306Z,11.15
2022-11-06T10:47:08.583Z,7.90
2022-11-06T10:50:06.000Z,10.15
2022-11-06T10:53:25.435Z,10.05
2022-11-06T10:56:54.975Z,8.75
2022-11-06T10:59:40.963Z,7.10
2022-11-06T11:02:46.175Z,8.05
2022-11-06T11:05:46.124Z,9.00
2022-11-06T11:08:33.587Z,8.88
2022-11-06T11:11:51.783Z,9.65
2022-11-06T11:14:36.891Z,8.65
2022-11-06T11:17:24.758Z,9.70
2022-11-06T11:20:11.150Z,8.45
2022-11-06T11:22:52.174Z,8.10
2022-11-06T11:25:37.076Z,8.25
2022-11-06T11:28:42.759Z,6.32
2022-11-06T11:31:33.787Z,6.72
2022-11-06T11:34:22.033Z,7.88
2022-11-06T11:37:11.263Z,6.65
2022-11-06T11:39:59.500Z,7.20
2022-11-06T11:42:42.440Z,7.13
2022-11-06T11:45:25.450Z,7.78
2022-11-06T11:48:22.448Z,8.80
2022-11-06T11:51:33.999Z,6.43
2022-11-06T11:54:26.940Z,8.07
2022-11-06T11:57:12.008Z,7.85
2022-11-06T12:00:00.600Z,7.97
2022-11-06T12:03:13.105Z,7.85
2022-11-06T12:05:57.207Z,6.13
2022-11-06T12:08:41.589Z,5.82
2022-11-06T12:11:36.354Z,6.97
2022-11-06T12:14:40.962Z,6.25
2022-11-06T12:17:25.310Z,6.60
2022-11-06T12:20:12.446Z,5.93
2022-11-06T12:22:56.009Z,7.00
2022-11-06T12:25:45.082Z,6.75
2022-11-06T12:28:31.049Z,6.70
2022-11-06T12:31:45.092Z,7.05
2022-11-06T12:34:48.923Z,7.20
2022-11-06T12:37:40.685Z,9.43
2022-11-06T12:40:44.922Z,9.68
2022-11-06T12:43:33.059Z,5.57
2022-11-06T12:46:37.931Z,6.22
2022-11-06T12:49:46.372Z,9.50
2022-11-06T12:53:06.578Z,9.10
2022-11-06T12:56:10.507Z,8.90
2022-11-06T12:59:22.232Z,7.05
2022-11-06T13:02:16.179Z,5.80
2022-11-06T13:05:21.297Z,7.85
2022-11-06T13:08:17.647Z,5.78
2022-11-06T13:11:00.874Z,5.78
2022-11-06T13:16:53.907Z,5.50
2022-11-06T13:19:55.345Z,4.32
2022-11-06T13:23:08.130Z,5.10
2022-11-06T13:26:15.404Z,5.82
2022-11-06T13:29:07.656Z,4.57
2022-11-06T13:31:57.828Z,4.90
2022-11-06T13:34:59.134Z,5.00
2022-11-06T13:38:01.145Z,6.70
2022-11-06T13:40:48.472Z,6.10
2022-11-06T13:43:37.694Z,6.50
2022-11-06T13:46:38.798Z,7.00
2022-11-06T13:49:57.654Z,5.70
2022-11-06T13:52:54.308Z,4.85
2022-11-06T13:56:16.871Z,5.00
2022-11-06T13:59:34.852Z,6.85
2022-11-06T14:02:54.131Z,7.40
2022-11-06T14:06:02.066Z,7.80
2022-11-06T14:09:22.365Z,7.78
2022-11-06T14:12:14.813Z,7.13
2022-11-06T14:15:11.636Z,8.30
2022-11-06T14:18:09.952Z,10.90
2022-11-06T14:21:27.356Z,8.05
2022-11-06T14:24:47.095Z,7.65
2022-11-06T14:27:45.424Z,7.55
2022-11-06T14:34:07.758Z,9.35
2022-11-06T14:37:08.786Z,8.68
2022-11-06T14:43:24.070Z,9.70
2022-11-06T14:46:23.742Z,12.38
2022-11-06T14:49:13.218Z,9.68
2022-11-06T14:52:22.295Z,8.88
2022-11-06T14:55:34.007Z,10.75
2022-11-06T14:58:46.847Z,11.35
2022-11-06T15:01:57.560Z,10.80
2022-11-06T15:04:53.968Z,11.75
2022-11-06T15:08:13.008Z,14.02
2022-11-06T15:11:01.095Z,12.45
2022-11-06T15:13:53.187Z,14.27
2022-11-06T15:16:49.784Z,17.00
2022-11-06T15:19:40.716Z,19.67
2022-11-06T15:23:04.097Z,17.97
2022-11-06T15:26:17.009Z,15.80
2022-11-06T15:29:15.186Z,14.32
2022-11-06T15:31:57.559Z,13.43
2022-11-06T15:35:01.984Z,13.27
2022-11-06T15:37:56.103Z,13.25
2022-11-06T15:40:43.005Z,13.80
2022-11-06T15:43:41.725Z,13.80
2022-11-06T15:46:37.411Z,12.27
2022-11-06T15:49:35.010Z,13.50
2022-11-06T15:52:41.970Z,14.27
2022-11-06T15:55:49.980Z,15.40
2022-11-06T15:58:46.058Z,16.33
2022-11-06T16:01:50.305Z,16.10
2022-11-06T16:07:38.044Z,16.00
2022-11-06T16:10:41.521Z,18.13
2022-11-06T16:13:34.350Z,15.13
2022-11-06T16:16:53.960Z,13.30
2022-11-06T16:19:51.558Z,11.95
2022-11-06T16:22:47.570Z,11.48
2022-11-06T16:25:29.052Z,12.88
2022-11-06T16:28:28.095Z,11.30
2022-11-06T16:31:24.869Z,12.98
2022-11-06T16:34:51.847Z,14.10
2022-11-06T16:37:35.960Z,16.92
2022-11-06T16:40:50.372Z,17.38
2022-11-06T16:43:49.311Z,17.33
2022-11-06T16:46:47.051Z,18.80
2022-11-06T16:49:57.583Z,18.35
2022-11-06T16:52:43.363Z,19.67
2022-11-06T16:55:34.425Z,20.55
2022-11-06T16:58:34.326Z,19.95
2022-11-06T17:01:21.218Z,18.23
2022-11-06T17:04:05.308Z,18.85
2022-11-06T17:06:51.122Z,17.92
2022-11-06T17:09:45.501Z,18.77
2022-11-06T17:12:45.992Z,19.02
2022-11-06T17:15:38.343Z,21.45
2022-11-06T17:18:23.962Z,20.33
2022-11-06T17:21:11.564Z,19.48
2022-11-06T17:23:48.896Z,19.70
2022-11-06T17:26:53.805Z,23.27
2022-11-06T17:32:20.459Z,25.40
2022-11-06T17:35:10.086Z,36.38
2022-11-06T17:37:59.110Z,32.92
2022-11-06T17:40:53.553Z,29.92
2022-11-06T17:43:46.586Z,24.35
2022-11-06T17:46:37.445Z,24.40
2022-11-06T17:49:28.011Z,25.40
2022-11-06T17:52:17.890Z,23.48
2022-11-06T17:55:06.809Z,26.90
2022-11-06T17:57:53.446Z,28.50
2022-11-06T18:00:43.041Z,26.48
2022-11-06T18:03:49.336Z,23.73
2022-11-06T18:06:34.729Z,24.33
2022-11-06T18:09:33.653Z,32.47
2022-11-06T18:12:17.710Z,38.97
2022-11-06T18:15:09.088Z,37.78
2022-11-06T18:18:00.780Z,42.10
2022-11-06T18:21:07.422Z,51.83
2022-11-06T18:24:00.318Z,44.13
2022-11-06T18:26:49.430Z,48.08
2022-11-06T18:29:49.780Z,46.20
2022-11-06T18:32:43.860Z,54.78
2022-11-06T18:35:37.727Z,46.47
2022-11-06T18:38:19.560Z,43.17
2022-11-06T18:41:17.535Z,41.83
2022-11-06T18:44:08.371Z,41.45
2022-11-06T18:46:56.074Z,38.92
2022-11-06T18:49:43.349Z,42.75
2022-11-06T18:52:55.854Z,41.47
2022-11-06T18:56:00.274Z,42.85
2022-11-06T18:58:49.083Z,43.97
2022-11-06T19:01:38.131Z,49.28
2022-11-06T19:04:26.179Z,54.53
2022-11-06T19:07:10.192Z,53.53
2022-11-06T19:10:05.179Z,60.67
2022-11-06T19:13:00.400Z,58.33
2022-11-06T19:18:43.043Z,54.50
2022-11-06T19:21:46.121Z,48.22
2022-11-06T19:24:47.517Z,46.90
2022-11-06T19:27:33.502Z,41.40
2022-11-06T19:30:20.201Z,56.45
2022-11-06T19:35:57.390Z,57.95
2022-11-06T19:38:44.320Z,62.47
2022-11-06T19:41:32.921Z,60.40
2022-11-06T19:44:14.144Z,67.78
2022-11-06T19:47:02.222Z,61.45
2022-11-06T19:49:49.062Z,61.35
2022-11-06T19:52:41.452Z,63.67
2022-11-06T19:55:27.918Z,72.15
2022-11-06T19:58:27.103Z,66.95
2022-11-06T20:01:24.042Z,67.93
2022-11-06T20:04:08.095Z,64.03
2022-11-06T20:07:05.981Z,61.97
2022-11-06T20:09:50.114Z,56.58
2022-11-06T20:12:40.090Z,61.60
2022-11-06T20:15:29.175Z,57.60
2022-11-06T20:18:13.785Z,53.60
2022-11-06T20:23:38.979Z,50.63
2022-11-06T20:26:19.600Z,57.72
2022-11-06T20:29:04.060Z,53.28
2022-11-06T20:31:49.356Z,55.30
2022-11-06T20:34:35.592Z,51.47
2022-11-06T20:37:25.704Z,53.78
2022-11-06T20:40:08.991Z,55.05
2022-11-06T20:42:57.055Z,52.58
2022-11-06T20:45:50.749Z,55.50
2022-11-06T20:48:30.774Z,50.45
2022-11-06T20:51:48.328Z,51.47
2022-11-06T20:54:43.700Z,64.65
2022-11-06T20:57:33.063Z,67.47
2022-11-06T21:00:13.017Z,63.10
2022-11-06T21:02:54.290Z,63.85
2022-11-06T21:05:43.050Z,76.65
2022-11-06T21:08:30.782Z,68.40
2022-11-06T21:11:18.310Z,75.20
2022-11-06T21:14:18.345Z,63.83
2022-11-06T21:16:56.577Z,61.72
2022-11-06T21:19:45.809Z,62.10
2022-11-06T21:22:35.063Z,62.42
2022-11-06T21:25:19.041Z,63.00
2022-11-06T21:28:05.517Z,59.35
2022-11-06T21:30:57.789Z,53.08
2022-11-06T21:33:40.138Z,50.22
2022-11-06T21:36:25.960Z,53.58
2022-11-06T21:39:19.559Z,49.90
2022-11-06T21:42:05.804Z,46.88
2022-11-06T21:44:54.020Z,48.45
2022-11-06T21:47:45.726Z,49.95
2022-11-06T21:50:31.036Z,46.75
2022-11-06T21:53:29.013Z,51.08
2022-11-06T21:56:19.995Z,47.28
2022-11-06T21:59:04.725Z,46.35
2022-11-06T22:01:51.491Z,50.65
2022-11-06T22:04:36.052Z,54.17
2022-11-06T22:07:18.514Z,54.08
2022-11-06T22:10:05.343Z,53.63
2022-11-06T22:12:45.484Z,54.63
2022-11-06T22:15:35.069Z,50.47
2022-11-06T22:18:14.572Z,52.50
2022-11-06T22:20:54.156Z,52.33
2022-11-06T22:23:38.506Z,53.78
2022-11-06T22:29:12.000Z,49.45
2022-11-06T22:34:32.996Z,53.25
2022-11-06T22:37:16.514Z,56.55
2022-11-06T22:40:06.147Z,57.80
2022-11-06T22:42:52.037Z,54.20
2022-11-06T22:45:34.052Z,60.28
2022-11-06T22:48:25.949Z,59.03
2022-11-06T22:51:15.333Z,57.25
2022-11-06T22:53:54.247Z,56.13
2022-11-06T22:56:37.020Z,62.95
2022-11-06T22:59:22.047Z,62.30
2022-11-06T23:02:10.880Z,63.00
2022-11-06T23:05:02.793Z,57.53
2022-11-06T23:07:47.602Z,64.50
2022-11-06T23:10:36.159Z,60.05
2022-11-06T23:13:16.251Z,59.95
2022-11-06T23:16:13.239Z,61.03
2022-11-06T23:18:53.412Z,59.70
2022-11-06T23:21:33.571Z,62.28
2022-11-06T23:24:14.522Z,66.25
2022-11-06T23:27:00.867Z,62.88
2022-11-06T23:29:39.994Z,64.63
2022-11-06T23:32:28.927Z,55.72
2022-11-06T23:35:11.655Z,57.25
2022-11-06T23:38:02.253Z,55.70
2022-11-06T23:40:43.190Z,57.33
2022-11-06T23:43:54.917Z,57.53
2022-11-06T23:46:42.144Z,55.25
2022-11-06T23:49:36.391Z,58.17
2022-11-06T23:52:22.124Z,55.15
2022-11-06T23:55:08.410Z,57.38
2022-11-06T23:57:54.917Z,57.25
